sensor_id;sensor_type;location;lat;lon;timestamp;P1;durP1;ratioP1;P2;durP2;ratioP2
15307;SDS011;7755;52.208;6.964;2023-04-25T00:01:06;12.30;;;5.83;;
15307;SDS011;7755;52.208;6.964;2023-04-25T00:05:10;12.77;;;5.83;;
15307;SDS011;7755;52.208;6.964;2023-04-25T00:09:13;13.00;;;6.53;;
15307;SDS011;7755;52.208;6.964;2023-04-25T00:13:16;16.63;;;7.37;;
15307;SDS011;7755;52.208;6.964;2023-04-25T00:17:22;14.40;;;6.60;;
15307;SDS011;7755;52.208;6.964;2023-04-25T00:21:25;19.30;;;7.40;;
15307;SDS011;7755;52.208;6.964;2023-04-25T00:25:29;17.97;;;7.63;;
15307;SDS011;7755;52.208;6.964;2023-04-25T00:29:32;16.97;;;7.37;;
15307;SDS011;7755;52.208;6.964;2023-04-25T00:33:37;11.87;;;6.10;;
15307;SDS011;7755;52.208;6.964;2023-04-25T00:37:40;18.37;;;7.17;;
15307;SDS011;7755;52.208;6.964;2023-04-25T00:41:43;16.50;;;6.97;;
15307;SDS011;7755;52.208;6.964;2023-04-25T00:45:47;18.23;;;6.67;;
15307;SDS011;7755;52.208;6.964;2023-04-25T00:49:52;14.73;;;6.50;;
15307;SDS011;7755;52.208;6.964;2023-04-25T00:53:55;14.77;;;6.50;;
15307;SDS011;7755;52.208;6.964;2023-04-25T00:57:58;14.73;;;6.17;;
15307;SDS011;7755;52.208;6.964;2023-04-25T01:02:01;16.53;;;7.00;;
15307;SDS011;7755;52.208;6.964;2023-04-25T01:06:07;12.97;;;6.07;;
15307;SDS011;7755;52.208;6.964;2023-04-25T01:10:10;12.33;;;6.80;;
15307;SDS011;7755;52.208;6.964;2023-04-25T01:14:13;15.83;;;6.23;;
15307;SDS011;7755;52.208;6.964;2023-04-25T01:18:16;17.73;;;7.20;;
15307;SDS011;7755;52.208;6.964;2023-04-25T01:22:20;19.47;;;7.10;;
15307;SDS011;7755;52.208;6.964;2023-04-25T01:26:25;10.70;;;5.93;;
15307;SDS011;7755;52.208;6.964;2023-04-25T01:30:28;17.77;;;7.07;;
15307;SDS011;7755;52.208;6.964;2023-04-25T01:34:31;8.93;;;6.07;;
15307;SDS011;7755;52.208;6.964;2023-04-25T01:38:36;10.30;;;5.93;;
15307;SDS011;7755;52.208;6.964;2023-04-25T01:42:41;12.80;;;6.43;;
15307;SDS011;7755;52.208;6.964;2023-04-25T01:46:46;13.33;;;6.33;;
15307;SDS011;7755;52.208;6.964;2023-04-25T01:50:48;14.27;;;7.20;;
15307;SDS011;7755;52.208;6.964;2023-04-25T01:54:53;16.40;;;7.03;;
15307;SDS011;7755;52.208;6.964;2023-04-25T01:58:57;16.20;;;7.70;;
15307;SDS011;7755;52.208;6.964;2023-04-25T02:03:35;18.33;;;7.17;;
15307;SDS011;7755;52.208;6.964;2023-04-25T02:07:43;14.57;;;6.80;;
15307;SDS011;7755;52.208;6.964;2023-04-25T02:11:48;17.23;;;7.87;;
15307;SDS011;7755;52.208;6.964;2023-04-25T02:16:29;15.80;;;6.80;;
15307;SDS011;7755;52.208;6.964;2023-04-25T02:20:34;19.53;;;8.07;;
15307;SDS011;7755;52.208;6.964;2023-04-25T02:24:38;19.30;;;7.10;;
15307;SDS011;7755;52.208;6.964;2023-04-25T02:28:43;15.13;;;6.63;;
15307;SDS011;7755;52.208;6.964;2023-04-25T02:32:46;13.70;;;7.53;;
15307;SDS011;7755;52.208;6.964;2023-04-25T02:36:49;15.17;;;7.10;;
15307;SDS011;7755;52.208;6.964;2023-04-25T02:40:52;15.47;;;6.77;;
15307;SDS011;7755;52.208;6.964;2023-04-25T02:44:57;17.07;;;6.53;;
15307;SDS011;7755;52.208;6.964;2023-04-25T02:49:00;12.57;;;6.90;;
15307;SDS011;7755;52.208;6.964;2023-04-25T02:53:04;14.07;;;6.70;;
15307;SDS011;7755;52.208;6.964;2023-04-25T02:57:13;13.60;;;6.23;;
15307;SDS011;7755;52.208;6.964;2023-04-25T03:01:17;14.83;;;6.27;;
15307;SDS011;7755;52.208;6.964;2023-04-25T03:05:20;17.43;;;6.30;;
15307;SDS011;7755;52.208;6.964;2023-04-25T03:09:23;15.57;;;6.43;;
15307;SDS011;7755;52.208;6.964;2023-04-25T03:13:26;15.93;;;6.30;;
15307;SDS011;7755;52.208;6.964;2023-04-25T03:17:33;7.80;;;5.40;;
15307;SDS011;7755;52.208;6.964;2023-04-25T03:21:36;13.17;;;5.73;;
15307;SDS011;7755;52.208;6.964;2023-04-25T03:25:39;16.27;;;6.83;;
15307;SDS011;7755;52.208;6.964;2023-04-25T03:29:42;12.27;;;6.33;;
15307;SDS011;7755;52.208;6.964;2023-04-25T03:33:46;12.17;;;6.47;;
15307;SDS011;7755;52.208;6.964;2023-04-25T03:37:51;15.27;;;7.13;;
15307;SDS011;7755;52.208;6.964;2023-04-25T03:41:59;14.23;;;6.30;;
15307;SDS011;7755;52.208;6.964;2023-04-25T03:46:03;9.97;;;5.27;;
15307;SDS011;7755;52.208;6.964;2023-04-25T03:50:07;12.03;;;5.87;;
15307;SDS011;7755;52.208;6.964;2023-04-25T03:54:11;12.83;;;5.67;;
15307;SDS011;7755;52.208;6.964;2023-04-25T03:58:14;11.33;;;5.00;;
15307;SDS011;7755;52.208;6.964;2023-04-25T04:02:17;12.37;;;5.43;;
15307;SDS011;7755;52.208;6.964;2023-04-25T04:06:22;12.23;;;6.07;;
15307;SDS011;7755;52.208;6.964;2023-04-25T04:10:31;11.07;;;5.17;;
15307;SDS011;7755;52.208;6.964;2023-04-25T04:14:34;12.53;;;5.27;;
15307;SDS011;7755;52.208;6.964;2023-04-25T04:18:39;18.20;;;5.97;;
15307;SDS011;7755;52.208;6.964;2023-04-25T04:22:44;13.33;;;5.53;;
15307;SDS011;7755;52.208;6.964;2023-04-25T04:26:50;9.50;;;5.20;;
15307;SDS011;7755;52.208;6.964;2023-04-25T04:31:22;12.90;;;5.13;;
15307;SDS011;7755;52.208;6.964;2023-04-25T04:40:16;13.57;;;5.80;;
15307;SDS011;7755;52.208;6.964;2023-04-25T04:44:44;17.20;;;6.13;;
15307;SDS011;7755;52.208;6.964;2023-04-25T04:49:27;8.17;;;5.27;;
15307;SDS011;7755;52.208;6.964;2023-04-25T04:53:59;15.63;;;6.23;;
15307;SDS011;7755;52.208;6.964;2023-04-25T04:58:30;14.03;;;5.57;;
15307;SDS011;7755;52.208;6.964;2023-04-25T05:02:42;10.07;;;5.53;;
15307;SDS011;7755;52.208;6.964;2023-04-25T05:06:58;7.73;;;5.67;;
15307;SDS011;7755;52.208;6.964;2023-04-25T05:11:19;10.87;;;5.60;;
15307;SDS011;7755;52.208;6.964;2023-04-25T05:15:41;9.17;;;4.97;;
15307;SDS011;7755;52.208;6.964;2023-04-25T05:24:37;14.77;;;5.90;;
15307;SDS011;7755;52.208;6.964;2023-04-25T05:28:58;15.27;;;6.37;;
15307;SDS011;7755;52.208;6.964;2023-04-25T05:33:19;10.13;;;5.43;;
15307;SDS011;7755;52.208;6.964;2023-04-25T05:37:22;13.73;;;6.03;;
15307;SDS011;7755;52.208;6.964;2023-04-25T05:41:37;9.47;;;4.90;;
15307;SDS011;7755;52.208;6.964;2023-04-25T05:45:58;13.33;;;5.27;;
15307;SDS011;7755;52.208;6.964;2023-04-25T05:50:15;11.27;;;5.20;;
15307;SDS011;7755;52.208;6.964;2023-04-25T05:54:25;10.63;;;5.57;;
15307;SDS011;7755;52.208;6.964;2023-04-25T05:58:30;12.03;;;5.47;;
15307;SDS011;7755;52.208;6.964;2023-04-25T06:02:34;13.17;;;5.43;;
15307;SDS011;7755;52.208;6.964;2023-04-25T06:06:38;11.00;;;5.67;;
15307;SDS011;7755;52.208;6.964;2023-04-25T06:10:41;9.83;;;4.70;;
15307;SDS011;7755;52.208;6.964;2023-04-25T06:15:00;12.37;;;5.57;;
15307;SDS011;7755;52.208;6.964;2023-04-25T06:19:08;7.03;;;4.37;;
15307;SDS011;7755;52.208;6.964;2023-04-25T06:23:12;9.83;;;4.47;;
15307;SDS011;7755;52.208;6.964;2023-04-25T06:27:24;10.47;;;4.93;;
15307;SDS011;7755;52.208;6.964;2023-04-25T06:31:28;7.80;;;4.90;;
15307;SDS011;7755;52.208;6.964;2023-04-25T06:35:34;9.17;;;4.47;;
15307;SDS011;7755;52.208;6.964;2023-04-25T06:39:40;12.17;;;4.43;;
15307;SDS011;7755;52.208;6.964;2023-04-25T06:43:45;11.20;;;4.97;;
15307;SDS011;7755;52.208;6.964;2023-04-25T06:48:11;5.80;;;4.03;;
15307;SDS011;7755;52.208;6.964;2023-04-25T06:52:13;9.00;;;4.17;;
15307;SDS011;7755;52.208;6.964;2023-04-25T06:56:19;7.30;;;3.93;;
15307;SDS011;7755;52.208;6.964;2023-04-25T07:00:46;8.37;;;4.03;;
15307;SDS011;7755;52.208;6.964;2023-04-25T07:04:51;9.43;;;4.00;;
15307;SDS011;7755;52.208;6.964;2023-04-25T07:08:59;12.23;;;3.80;;
15307;SDS011;7755;52.208;6.964;2023-04-25T07:13:05;7.00;;;3.80;;
15307;SDS011;7755;52.208;6.964;2023-04-25T07:17:08;6.30;;;3.33;;
15307;SDS011;7755;52.208;6.964;2023-04-25T07:21:11;6.97;;;3.20;;
15307;SDS011;7755;52.208;6.964;2023-04-25T07:25:16;6.47;;;3.27;;
15307;SDS011;7755;52.208;6.964;2023-04-25T07:29:22;8.33;;;3.57;;
15307;SDS011;7755;52.208;6.964;2023-04-25T07:33:26;6.40;;;3.20;;
15307;SDS011;7755;52.208;6.964;2023-04-25T07:37:29;7.00;;;3.60;;
15307;SDS011;7755;52.208;6.964;2023-04-25T07:41:42;8.87;;;3.70;;
15307;SDS011;7755;52.208;6.964;2023-04-25T07:45:53;9.53;;;3.87;;
15307;SDS011;7755;52.208;6.964;2023-04-25T07:49:57;5.73;;;3.77;;
15307;SDS011;7755;52.208;6.964;2023-04-25T07:54:00;8.03;;;2.90;;
15307;SDS011;7755;52.208;6.964;2023-04-25T07:58:15;3.67;;;2.97;;
15307;SDS011;7755;52.208;6.964;2023-04-25T08:02:38;9.10;;;3.27;;
15307;SDS011;7755;52.208;6.964;2023-04-25T08:06:50;9.60;;;3.43;;
15307;SDS011;7755;52.208;6.964;2023-04-25T08:15:06;7.07;;;3.23;;
15307;SDS011;7755;52.208;6.964;2023-04-25T08:19:15;4.13;;;2.50;;
15307;SDS011;7755;52.208;6.964;2023-04-25T08:23:19;7.03;;;2.73;;
15307;SDS011;7755;52.208;6.964;2023-04-25T08:27:29;4.87;;;2.60;;
15307;SDS011;7755;52.208;6.964;2023-04-25T08:31:32;5.07;;;2.07;;
15307;SDS011;7755;52.208;6.964;2023-04-25T08:35:39;3.40;;;2.23;;
15307;SDS011;7755;52.208;6.964;2023-04-25T08:39:42;5.87;;;2.60;;
15307;SDS011;7755;52.208;6.964;2023-04-25T08:43:49;4.20;;;2.70;;
15307;SDS011;7755;52.208;6.964;2023-04-25T08:47:54;6.00;;;2.40;;
15307;SDS011;7755;52.208;6.964;2023-04-25T08:52:02;3.33;;;2.33;;
15307;SDS011;7755;52.208;6.964;2023-04-25T08:56:12;5.53;;;2.57;;
15307;SDS011;7755;52.208;6.964;2023-04-25T09:00:30;3.67;;;2.27;;
15307;SDS011;7755;52.208;6.964;2023-04-25T09:09:10;3.47;;;2.40;;
15307;SDS011;7755;52.208;6.964;2023-04-25T09:13:17;6.03;;;2.57;;
15307;SDS011;7755;52.208;6.964;2023-04-25T09:17:55;2.13;;;2.03;;
15307;SDS011;7755;52.208;6.964;2023-04-25T09:22:01;2.80;;;2.30;;
15307;SDS011;7755;52.208;6.964;2023-04-25T09:26:06;7.03;;;2.50;;
15307;SDS011;7755;52.208;6.964;2023-04-25T09:30:11;6.43;;;2.80;;
15307;SDS011;7755;52.208;6.964;2023-04-25T09:34:43;4.80;;;2.97;;
15307;SDS011;7755;52.208;6.964;2023-04-25T09:48:03;5.80;;;2.60;;
15307;SDS011;7755;52.208;6.964;2023-04-25T09:56:53;5.20;;;2.40;;
15307;SDS011;7755;52.208;6.964;2023-04-25T10:00:59;4.70;;;2.27;;
15307;SDS011;7755;52.208;6.964;2023-04-25T10:05:12;5.77;;;2.47;;
15307;SDS011;7755;52.208;6.964;2023-04-25T10:09:16;6.43;;;2.90;;
15307;SDS011;7755;52.208;6.964;2023-04-25T10:13:21;4.80;;;2.13;;
15307;SDS011;7755;52.208;6.964;2023-04-25T10:17:27;2.93;;;2.03;;
15307;SDS011;7755;52.208;6.964;2023-04-25T10:21:31;2.93;;;1.97;;
15307;SDS011;7755;52.208;6.964;2023-04-25T10:25:36;4.13;;;2.23;;
15307;SDS011;7755;52.208;6.964;2023-04-25T10:29:40;2.00;;;1.80;;
15307;SDS011;7755;52.208;6.964;2023-04-25T10:33:46;2.20;;;2.00;;
15307;SDS011;7755;52.208;6.964;2023-04-25T10:38:03;3.57;;;1.77;;
15307;SDS011;7755;52.208;6.964;2023-04-25T10:42:07;3.03;;;2.07;;
15307;SDS011;7755;52.208;6.964;2023-04-25T10:46:17;4.87;;;2.53;;
15307;SDS011;7755;52.208;6.964;2023-04-25T10:50:22;2.37;;;2.17;;
15307;SDS011;7755;52.208;6.964;2023-04-25T10:54:41;5.77;;;2.17;;
15307;SDS011;7755;52.208;6.964;2023-04-25T10:58:46;3.50;;;2.23;;
15307;SDS011;7755;52.208;6.964;2023-04-25T11:02:53;3.57;;;2.30;;
15307;SDS011;7755;52.208;6.964;2023-04-25T11:07:04;3.43;;;2.60;;
15307;SDS011;7755;52.208;6.964;2023-04-25T11:11:13;3.07;;;2.77;;
15307;SDS011;7755;52.208;6.964;2023-04-25T11:15:17;4.47;;;2.60;;
15307;SDS011;7755;52.208;6.964;2023-04-25T11:19:20;5.10;;;2.20;;
15307;SDS011;7755;52.208;6.964;2023-04-25T11:23:24;4.63;;;1.87;;
15307;SDS011;7755;52.208;6.964;2023-04-25T11:27:28;4.13;;;2.30;;
15307;SDS011;7755;52.208;6.964;2023-04-25T11:31:31;3.30;;;2.20;;
15307;SDS011;7755;52.208;6.964;2023-04-25T11:35:34;3.70;;;2.10;;
15307;SDS011;7755;52.208;6.964;2023-04-25T11:39:38;6.03;;;2.30;;
15307;SDS011;7755;52.208;6.964;2023-04-25T11:43:42;4.33;;;2.53;;
15307;SDS011;7755;52.208;6.964;2023-04-25T11:47:45;4.43;;;2.00;;
15307;SDS011;7755;52.208;6.964;2023-04-25T11:51:48;4.07;;;1.57;;
15307;SDS011;7755;52.208;6.964;2023-04-25T11:55:52;1.73;;;1.63;;
15307;SDS011;7755;52.208;6.964;2023-04-25T11:59:56;3.77;;;1.93;;
15307;SDS011;7755;52.208;6.964;2023-04-25T12:04:13;2.07;;;1.80;;
15307;SDS011;7755;52.208;6.964;2023-04-25T12:08:18;2.20;;;1.90;;
15307;SDS011;7755;52.208;6.964;2023-04-25T12:12:23;3.27;;;1.93;;
15307;SDS011;7755;52.208;6.964;2023-04-25T12:16:29;4.53;;;2.23;;
15307;SDS011;7755;52.208;6.964;2023-04-25T12:20:32;4.77;;;2.63;;
15307;SDS011;7755;52.208;6.964;2023-04-25T12:24:36;2.17;;;1.97;;
15307;SDS011;7755;52.208;6.964;2023-04-25T12:28:45;3.30;;;2.00;;
15307;SDS011;7755;52.208;6.964;2023-04-25T12:32:48;2.70;;;1.87;;
15307;SDS011;7755;52.208;6.964;2023-04-25T12:36:52;4.70;;;2.00;;
15307;SDS011;7755;52.208;6.964;2023-04-25T12:40:56;2.93;;;2.20;;
15307;SDS011;7755;52.208;6.964;2023-04-25T12:45:00;6.07;;;2.47;;
15307;SDS011;7755;52.208;6.964;2023-04-25T12:49:04;1.87;;;1.77;;
15307;SDS011;7755;52.208;6.964;2023-04-25T12:53:19;4.70;;;1.97;;
15307;SDS011;7755;52.208;6.964;2023-04-25T12:57:23;2.43;;;1.70;;
15307;SDS011;7755;52.208;6.964;2023-04-25T13:01:27;4.10;;;2.37;;
15307;SDS011;7755;52.208;6.964;2023-04-25T13:05:31;3.10;;;2.30;;
15307;SDS011;7755;52.208;6.964;2023-04-25T13:09:36;2.57;;;2.00;;
15307;SDS011;7755;52.208;6.964;2023-04-25T13:13:39;3.13;;;2.30;;
15307;SDS011;7755;52.208;6.964;2023-04-25T13:17:44;4.67;;;2.40;;
15307;SDS011;7755;52.208;6.964;2023-04-25T13:21:47;5.03;;;2.67;;
15307;SDS011;7755;52.208;6.964;2023-04-25T13:25:50;5.77;;;2.63;;
15307;SDS011;7755;52.208;6.964;2023-04-25T13:29:55;4.77;;;3.00;;
15307;SDS011;7755;52.208;6.964;2023-04-25T13:33:59;3.60;;;2.30;;
15307;SDS011;7755;52.208;6.964;2023-04-25T13:38:02;4.63;;;2.33;;
15307;SDS011;7755;52.208;6.964;2023-04-25T13:42:06;2.43;;;1.47;;
15307;SDS011;7755;52.208;6.964;2023-04-25T13:46:10;3.33;;;2.13;;
15307;SDS011;7755;52.208;6.964;2023-04-25T13:50:38;6.77;;;2.70;;
15307;SDS011;7755;52.208;6.964;2023-04-25T13:54:41;2.60;;;1.77;;
15307;SDS011;7755;52.208;6.964;2023-04-25T13:58:45;4.53;;;2.50;;
15307;SDS011;7755;52.208;6.964;2023-04-25T14:02:48;2.70;;;2.17;;
15307;SDS011;7755;52.208;6.964;2023-04-25T14:06:54;3.73;;;2.17;;
15307;SDS011;7755;52.208;6.964;2023-04-25T14:10:57;1.90;;;1.80;;
15307;SDS011;7755;52.208;6.964;2023-04-25T14:15:00;2.70;;;2.07;;
15307;SDS011;7755;52.208;6.964;2023-04-25T14:19:03;5.93;;;2.20;;
15307;SDS011;7755;52.208;6.964;2023-04-25T14:23:07;2.63;;;1.80;;
15307;SDS011;7755;52.208;6.964;2023-04-25T14:27:10;5.00;;;1.90;;
15307;SDS011;7755;52.208;6.964;2023-04-25T14:31:13;2.70;;;1.90;;
15307;SDS011;7755;52.208;6.964;2023-04-25T14:35:17;1.93;;;1.70;;
15307;SDS011;7755;52.208;6.964;2023-04-25T14:39:22;3.60;;;1.77;;
15307;SDS011;7755;52.208;6.964;2023-04-25T14:43:25;1.60;;;1.50;;
15307;SDS011;7755;52.208;6.964;2023-04-25T14:47:28;4.13;;;1.70;;
15307;SDS011;7755;52.208;6.964;2023-04-25T14:51:31;2.37;;;1.80;;
15307;SDS011;7755;52.208;6.964;2023-04-25T14:55:35;2.47;;;1.53;;
15307;SDS011;7755;52.208;6.964;2023-04-25T14:59:38;1.83;;;1.60;;
15307;SDS011;7755;52.208;6.964;2023-04-25T15:03:42;1.73;;;1.63;;
15307;SDS011;7755;52.208;6.964;2023-04-25T15:07:45;2.60;;;1.53;;
15307;SDS011;7755;52.208;6.964;2023-04-25T15:11:50;2.53;;;2.00;;
15307;SDS011;7755;52.208;6.964;2023-04-25T15:33:44;1.93;;;1.67;;
15307;SDS011;7755;52.208;6.964;2023-04-25T15:37:57;4.13;;;2.40;;
15307;SDS011;7755;52.208;6.964;2023-04-25T15:42:02;3.10;;;1.80;;
15307;SDS011;7755;52.208;6.964;2023-04-25T15:46:06;7.17;;;2.50;;
15307;SDS011;7755;52.208;6.964;2023-04-25T15:50:09;3.63;;;2.93;;
15307;SDS011;7755;52.208;6.964;2023-04-25T15:58:49;4.07;;;2.13;;
15307;SDS011;7755;52.208;6.964;2023-04-25T16:02:55;3.30;;;2.30;;
15307;SDS011;7755;52.208;6.964;2023-04-25T16:06:59;4.77;;;1.90;;
15307;SDS011;7755;52.208;6.964;2023-04-25T16:11:17;5.27;;;2.00;;
15307;SDS011;7755;52.208;6.964;2023-04-25T16:15:32;7.23;;;2.60;;
15307;SDS011;7755;52.208;6.964;2023-04-25T16:19:39;5.33;;;2.40;;
15307;SDS011;7755;52.208;6.964;2023-04-25T16:23:41;3.03;;;2.03;;
15307;SDS011;7755;52.208;6.964;2023-04-25T16:27:45;4.70;;;2.40;;
15307;SDS011;7755;52.208;6.964;2023-04-25T16:31:48;4.53;;;2.43;;
15307;SDS011;7755;52.208;6.964;2023-04-25T16:35:53;3.90;;;2.30;;
15307;SDS011;7755;52.208;6.964;2023-04-25T16:39:56;4.53;;;2.03;;
15307;SDS011;7755;52.208;6.964;2023-04-25T16:44:00;5.43;;;2.30;;
15307;SDS011;7755;52.208;6.964;2023-04-25T16:48:03;4.10;;;3.10;;
15307;SDS011;7755;52.208;6.964;2023-04-25T16:52:08;4.73;;;2.93;;
15307;SDS011;7755;52.208;6.964;2023-04-25T16:56:11;5.60;;;3.70;;
15307;SDS011;7755;52.208;6.964;2023-04-25T17:00:14;3.27;;;2.00;;
15307;SDS011;7755;52.208;6.964;2023-04-25T17:04:18;3.80;;;2.60;;
15307;SDS011;7755;52.208;6.964;2023-04-25T17:08:23;2.67;;;2.47;;
15307;SDS011;7755;52.208;6.964;2023-04-25T17:12:26;4.23;;;1.87;;
15307;SDS011;7755;52.208;6.964;2023-04-25T17:16:33;4.17;;;2.60;;
15307;SDS011;7755;52.208;6.964;2023-04-25T17:20:37;3.97;;;2.40;;
15307;SDS011;7755;52.208;6.964;2023-04-25T17:24:42;4.13;;;2.87;;
15307;SDS011;7755;52.208;6.964;2023-04-25T17:28:45;7.27;;;3.30;;
15307;SDS011;7755;52.208;6.964;2023-04-25T17:32:50;3.97;;;2.60;;
15307;SDS011;7755;52.208;6.964;2023-04-25T17:36:53;7.10;;;3.80;;
15307;SDS011;7755;52.208;6.964;2023-04-25T17:41:13;5.17;;;2.47;;
15307;SDS011;7755;52.208;6.964;2023-04-25T17:45:16;5.83;;;2.90;;
15307;SDS011;7755;52.208;6.964;2023-04-25T17:49:20;4.23;;;3.00;;
15307;SDS011;7755;52.208;6.964;2023-04-25T17:53:24;4.40;;;2.90;;
15307;SDS011;7755;52.208;6.964;2023-04-25T17:57:28;2.40;;;2.20;;
15307;SDS011;7755;52.208;6.964;2023-04-25T18:01:32;3.17;;;2.70;;
15307;SDS011;7755;52.208;6.964;2023-04-25T18:05:35;4.33;;;2.40;;
15307;SDS011;7755;52.208;6.964;2023-04-25T18:09:39;4.40;;;2.63;;
15307;SDS011;7755;52.208;6.964;2023-04-25T18:13:43;2.53;;;2.30;;
15307;SDS011;7755;52.208;6.964;2023-04-25T18:17:46;4.87;;;3.03;;
15307;SDS011;7755;52.208;6.964;2023-04-25T18:21:50;3.33;;;3.03;;
15307;SDS011;7755;52.208;6.964;2023-04-25T18:25:55;3.40;;;3.10;;
15307;SDS011;7755;52.208;6.964;2023-04-25T18:29:59;4.03;;;3.27;;
15307;SDS011;7755;52.208;6.964;2023-04-25T18:34:02;5.83;;;3.37;;
15307;SDS011;7755;52.208;6.964;2023-04-25T18:38:07;5.30;;;2.90;;
15307;SDS011;7755;52.208;6.964;2023-04-25T18:42:19;6.93;;;3.00;;
15307;SDS011;7755;52.208;6.964;2023-04-25T18:46:24;5.73;;;3.30;;
15307;SDS011;7755;52.208;6.964;2023-04-25T18:50:26;5.33;;;2.83;;
15307;SDS011;7755;52.208;6.964;2023-04-25T18:54:30;5.70;;;3.20;;
15307;SDS011;7755;52.208;6.964;2023-04-25T18:58:33;4.17;;;2.80;;
15307;SDS011;7755;52.208;6.964;2023-04-25T19:02:39;3.80;;;2.80;;
15307;SDS011;7755;52.208;6.964;2023-04-25T19:06:43;6.33;;;3.10;;
15307;SDS011;7755;52.208;6.964;2023-04-25T19:10:47;6.37;;;3.80;;
15307;SDS011;7755;52.208;6.964;2023-04-25T19:14:50;7.47;;;4.97;;
15307;SDS011;7755;52.208;6.964;2023-04-25T19:18:57;9.13;;;5.73;;
15307;SDS011;7755;52.208;6.964;2023-04-25T19:23:03;6.57;;;4.37;;
15307;SDS011;7755;52.208;6.964;2023-04-25T19:27:07;7.77;;;5.07;;
15307;SDS011;7755;52.208;6.964;2023-04-25T19:31:10;7.63;;;3.73;;
15307;SDS011;7755;52.208;6.964;2023-04-25T19:35:15;5.53;;;3.93;;
15307;SDS011;7755;52.208;6.964;2023-04-25T19:39:19;4.27;;;3.30;;
15307;SDS011;7755;52.208;6.964;2023-04-25T19:43:23;8.87;;;3.43;;
15307;SDS011;7755;52.208;6.964;2023-04-25T19:47:26;6.17;;;4.23;;
15307;SDS011;7755;52.208;6.964;2023-04-25T19:51:31;5.57;;;4.47;;
15307;SDS011;7755;52.208;6.964;2023-04-25T19:55:36;5.07;;;3.97;;
15307;SDS011;7755;52.208;6.964;2023-04-25T19:59:40;5.80;;;4.73;;
15307;SDS011;7755;52.208;6.964;2023-04-25T20:03:48;10.27;;;5.20;;
15307;SDS011;7755;52.208;6.964;2023-04-25T20:07:55;8.10;;;4.40;;
15307;SDS011;7755;52.208;6.964;2023-04-25T20:11:58;4.33;;;3.70;;
15307;SDS011;7755;52.208;6.964;2023-04-25T20:16:03;6.20;;;4.20;;
15307;SDS011;7755;52.208;6.964;2023-04-25T20:24:24;5.67;;;3.83;;
15307;SDS011;7755;52.208;6.964;2023-04-25T20:28:29;6.20;;;4.50;;
15307;SDS011;7755;52.208;6.964;2023-04-25T20:32:32;6.87;;;4.77;;
15307;SDS011;7755;52.208;6.964;2023-04-25T20:36:36;6.40;;;4.40;;
15307;SDS011;7755;52.208;6.964;2023-04-25T20:40:48;5.50;;;4.17;;
15307;SDS011;7755;52.208;6.964;2023-04-25T20:45:06;4.57;;;3.20;;
15307;SDS011;7755;52.208;6.964;2023-04-25T20:49:31;6.17;;;3.73;;
15307;SDS011;7755;52.208;6.964;2023-04-25T21:07:25;4.73;;;4.20;;
15307;SDS011;7755;52.208;6.964;2023-04-25T21:11:29;7.40;;;4.50;;
15307;SDS011;7755;52.208;6.964;2023-04-25T21:15:33;6.80;;;3.30;;
15307;SDS011;7755;52.208;6.964;2023-04-25T21:19:38;7.47;;;4.17;;
15307;SDS011;7755;52.208;6.964;2023-04-25T21:23:42;6.53;;;4.37;;
15307;SDS011;7755;52.208;6.964;2023-04-25T21:27:45;9.17;;;4.17;;
15307;SDS011;7755;52.208;6.964;2023-04-25T21:31:50;6.33;;;4.50;;
15307;SDS011;7755;52.208;6.964;2023-04-25T21:35:54;8.23;;;4.27;;
15307;SDS011;7755;52.208;6.964;2023-04-25T21:39:57;6.90;;;4.20;;
15307;SDS011;7755;52.208;6.964;2023-04-25T21:44:00;6.20;;;4.40;;
15307;SDS011;7755;52.208;6.964;2023-04-25T21:48:03;6.93;;;4.17;;
15307;SDS011;7755;52.208;6.964;2023-04-25T21:52:07;7.20;;;4.67;;
15307;SDS011;7755;52.208;6.964;2023-04-25T21:56:10;7.40;;;4.70;;
15307;SDS011;7755;52.208;6.964;2023-04-25T22:00:13;7.80;;;3.97;;
15307;SDS011;7755;52.208;6.964;2023-04-25T22:04:25;8.53;;;4.30;;
15307;SDS011;7755;52.208;6.964;2023-04-25T22:08:30;5.43;;;3.90;;
15307;SDS011;7755;52.208;6.964;2023-04-25T22:12:33;6.10;;;4.07;;
15307;SDS011;7755;52.208;6.964;2023-04-25T22:16:37;8.07;;;3.67;;
15307;SDS011;7755;52.208;6.964;2023-04-25T22:20:40;8.97;;;4.40;;
15307;SDS011;7755;52.208;6.964;2023-04-25T22:24:45;5.03;;;3.97;;
15307;SDS011;7755;52.208;6.964;2023-04-25T22:28:50;6.90;;;4.47;;
15307;SDS011;7755;52.208;6.964;2023-04-25T22:32:54;4.53;;;3.80;;
15307;SDS011;7755;52.208;6.964;2023-04-25T22:36:57;6.03;;;4.30;;
15307;SDS011;7755;52.208;6.964;2023-04-25T22:41:02;7.33;;;4.80;;
15307;SDS011;7755;52.208;6.964;2023-04-25T22:45:05;6.20;;;4.40;;
15307;SDS011;7755;52.208;6.964;2023-04-25T22:49:09;6.23;;;4.50;;
15307;SDS011;7755;52.208;6.964;2023-04-25T22:53:12;4.57;;;4.17;;
15307;SDS011;7755;52.208;6.964;2023-04-25T22:57:18;7.23;;;4.30;;
15307;SDS011;7755;52.208;6.964;2023-04-25T23:01:23;8.03;;;4.30;;
15307;SDS011;7755;52.208;6.964;2023-04-25T23:05:28;8.67;;;4.23;;
15307;SDS011;7755;52.208;6.964;2023-04-25T23:09:33;5.43;;;4.20;;
15307;SDS011;7755;52.208;6.964;2023-04-25T23:13:37;8.30;;;4.70;;
15307;SDS011;7755;52.208;6.964;2023-04-25T23:17:40;6.03;;;4.20;;
15307;SDS011;7755;52.208;6.964;2023-04-25T23:21:43;5.47;;;3.80;;
15307;SDS011;7755;52.208;6.964;2023-04-25T23:25:46;8.40;;;4.10;;
15307;SDS011;7755;52.208;6.964;2023-04-25T23:29:51;5.43;;;4.10;;
15307;SDS011;7755;52.208;6.964;2023-04-25T23:33:56;8.63;;;4.50;;
15307;SDS011;7755;52.208;6.964;2023-04-25T23:37:59;7.33;;;4.43;;
15307;SDS011;7755;52.208;6.964;2023-04-25T23:42:03;6.80;;;4.60;;
15307;SDS011;7755;52.208;6.964;2023-04-25T23:46:07;4.83;;;4.30;;
15307;SDS011;7755;52.208;6.964;2023-04-25T23:50:10;4.60;;;4.10;;
15307;SDS011;7755;52.208;6.964;2023-04-25T23:54:13;5.60;;;4.37;;
15307;SDS011;7755;52.208;6.964;2023-04-25T23:58:16;6.30;;;3.97;;
